Latest Weather Observations for Gayndah

IDQ60801

Issued at 7:02 am EST Friday 12 February 2016 (issued every 30 minutes, with the page automatically refreshed every 10 minutes)

About weather observations | Map of weather stations | Latest weather observations for QLD | Other Formats
Station Details ID: 039066 Name: GAYNDAH AIRPORT Lat: -25.62 Lon: 151.62 Height: 110.9 m
Data from the previous 72 hours. | See also: Recent months at Gayndah
Date/Time
EST
Temp
°C
App
Temp
°C
Dew
Point
Rel
Hum
%
Delta-T
°C
Wind Press
QNH
hPa
Press
MSL
hPa
Rain
since 9 am
mm
Dir
 
Spd
km/h
Gust
km/h
Spd
kts
Gust
kts
12/07:00am 21.0 23.1 17.2 79 2.3 SW 2 6 1 3 1012.5 1011.9 0.0
12/06:30am 19.8 21.6 17.4 86 1.5 SW 4 6 2 3 1012.2 1011.6 0.0
12/06:00am 18.4 19.7 17.1 92 0.8 WSW 6 9 3 5 1012.1 1011.5 0.0
12/05:30am 18.0 19.9 16.7 92 0.8 SW 2 4 1 2 1012.2 1011.6 0.0
12/05:00am 18.5 19.6 17.0 91 0.9 WSW 7 9 4 5 1012.1 1011.5 0.0
12/04:30am 18.1 19.7 16.8 92 0.8 SW 4 6 2 3 1011.9 1011.3 0.0
12/04:00am 18.7 20.9 17.4 92 0.8 SSW 2 6 1 3 1011.6 1011.0 0.0
12/03:30am 19.1 21.8 17.8 92 0.8 CALM 0 4 0 2 1011.6 1011.0 0.0
12/03:00am 19.1 21.3 17.4 90 1.0 SSW 2 4 1 2 1011.5 1010.9 0.0
12/02:30am 19.4 20.8 17.4 88 1.2 SW 6 6 3 3 1011.7 1011.1 0.0
12/02:00am 19.4 20.9 17.5 89 1.2 WSW 6 6 3 3 1011.8 1011.2 0.0
12/01:30am 19.6 22.2 17.4 87 1.3 CALM 0 0 0 0 1012.0 1011.4 0.0
12/01:00am 19.8 21.6 17.4 86 1.5 WSW 4 6 2 3 1012.1 1011.5 0.0
12/12:30am 20.0 22.2 17.4 85 1.6 WSW 2 4 1 2 1012.2 1011.6 0.0
12/12:00am 20.3 23.1 17.9 86 1.5 CALM 0 0 0 0 1012.2 1011.6 0.0
 
Date/Time
EST
Temp
°C
App
Temp
°C
Dew
Point
Rel
Hum
%
Delta-T
°C
Wind Press
QNH
hPa
Press
MSL
hPa
Rain
since 9 am
mm
Dir
 
Spd
km/h
Gust
km/h
Spd
kts
Gust
kts
11/11:30pm 20.6 23.2 17.4 82 2.0 CALM 0 0 0 0 1012.3 1011.7 0.0
11/11:00pm 21.3 23.7 17.1 77 2.6 CALM 0 0 0 0 1012.5 1011.9 0.0
11/10:30pm 21.7 23.1 17.3 76 2.7 ENE 6 7 3 4 1012.6 1012.0 0.0
11/10:00pm 21.8 22.9 17.2 75 2.8 NE 7 9 4 5 1012.7 1012.1 0.0
11/09:30pm 22.8 24.4 17.0 70 3.6 NE 4 6 2 3 1012.7 1012.1 0.0
11/09:00pm 23.3 23.9 16.8 67 4.0 ENE 9 13 5 7 1012.4 1011.8 0.0
11/08:30pm 24.3 24.3 17.1 64 4.5 E 13 20 7 11 1012.2 1011.6 0.0
11/08:00pm 24.7 24.4 17.4 64 4.6 E 15 19 8 10 1011.9 1011.3 0.0
11/07:30pm 25.5 25.7 17.7 62 4.9 E 13 20 7 11 1011.6 1011.0 0.0
11/07:00pm 26.0 25.3 17.4 59 5.4 ESE 17 28 9 15 1011.3 1010.7 0.0
11/06:30pm 26.8 25.6 17.6 57 5.8 E 20 30 11 16 1010.8 1010.2 0.0
11/06:00pm 27.5 26.4 17.7 55 6.2 E 20 30 11 16 1010.3 1009.7 0.0
11/05:30pm 28.4 27.8 18.5 55 6.4 E 19 26 10 14 1009.6 1008.9 0.0
11/05:00pm 29.1 28.3 17.9 50 7.2 E 19 30 10 16 1009.2 1008.5 0.0
11/04:30pm 30.1 29.7 18.8 50 7.3 ENE 19 28 10 15 1009.0 1008.3 0.0
11/04:00pm 28.6 28.3 19.2 56 6.1 NE 19 26 10 14 1008.9 1008.2 0.0
11/03:30pm 29.7 29.5 18.5 51 7.2 NE 17 28 9 15 1008.8 1008.1 0.0
11/03:00pm 30.1 29.7 17.2 46 8.2 E 15 22 8 12 1008.9 1008.2 0.0
11/02:30pm 30.4 30.6 18.5 49 7.7 E 15 22 8 12 1009.4 1008.7 0.0
11/02:00pm 30.3 30.2 17.0 44 8.4 ESE 13 22 7 12 1009.7 1009.0 0.0
11/01:30pm 30.3 31.2 18.4 49 7.7 ENE 11 20 6 11 1010.0 1009.3 0.0
11/01:00pm 29.9 29.4 18.7 51 7.3 E 19 24 10 13 1010.4 1009.8 0.0
11/12:30pm 30.3 30.4 18.4 49 7.7 E 15 22 8 12 1010.7 1010.1 0.0
11/12:00pm 28.8 28.7 17.0 49 7.4 ESE 13 20 7 11 1011.3 1010.7 0.0
11/11:30am 29.0 29.1 16.5 46 7.8 SE 11 20 6 11 1011.6 1011.0 0.0
11/11:00am 28.9 29.4 17.4 49 7.3 E 11 17 6 9 1011.8 1011.2 0.0
11/10:30am 28.7 28.2 17.9 52 6.9 ENE 17 24 9 13 1012.0 1011.4 0.0
11/10:00am 27.6 28.2 16.9 52 6.7 ENE 9 17 5 9 1012.2 1011.6 0.0
11/09:30am 27.2 27.4 16.8 53 6.5 ESE 11 17 6 9 1012.3 1011.7 0.0
11/09:00am 26.6 26.7 16.5 54 6.3 ESE 11 19 6 10 1012.4 1011.8 0.0
11/08:30am 25.7 24.8 16.8 58 5.5 SE 17 24 9 13 1012.4 1011.8 0.0
11/08:00am 24.8 25.2 17.3 63 4.7 SE 11 20 6 11 1012.4 1011.8 0.0
11/07:30am 23.4 24.8 17.4 69 3.7 SSE 6 9 3 5 1012.3 1011.7 0.0
11/07:00am 22.3 24.6 17.7 75 2.9 S 2 4 1 2 1012.2 1011.6 0.0
11/06:30am 20.9 23.6 17.7 82 2.0 CALM 0 0 0 0 1011.9 1011.3 0.0
11/06:00am 19.7 22.1 17.1 85 1.6 CALM 0 2 0 1 1011.5 1010.9 0.0
11/05:30am 20.1 22.5 17.9 87 1.4 SSE 2 6 1 3 1011.3 1010.7 0.0
11/05:00am 20.2 21.8 17.8 86 1.5 SE 6 7 3 4 1011.4 1010.8 0.0
11/04:30am 19.9 22.7 18.0 89 1.2 CALM 0 2 0 1 1011.2 1010.6 0.0
11/04:00am 19.4 22.0 17.5 89 1.2 CALM 0 0 0 0 1011.0 1010.4 0.0
11/03:30am 19.5 21.4 17.6 89 1.2 W 4 6 2 3 1010.9 1010.3 0.0
11/03:00am 19.7 21.5 18.2 91 0.9 W 6 7 3 4 1010.9 1010.3 0.0
11/02:30am 19.8 22.4 17.6 87 1.4 CALM 0 0 0 0 1010.9 1010.3 0.0
11/02:00am 19.9 22.7 17.9 88 1.2 CALM 0 0 0 0 1011.1 1010.5 0.0
11/01:30am 20.0 22.9 18.1 89 1.2 CALM 0 0 0 0 1011.4 1010.8 0.0
11/01:00am 20.2 22.8 17.6 85 1.6 CALM 0 0 0 0 1011.7 1011.1 0.0
11/12:30am 20.7 23.3 17.5 82 2.0 CALM 0 0 0 0 1012.0 1011.4 0.0
11/12:00am 21.4 24.0 17.6 79 2.4 CALM 0 0 0 0 1012.2 1011.6 0.0
 
Date/Time
EST
Temp
°C
App
Temp
°C
Dew
Point
Rel
Hum
%
Delta-T
°C
Wind Press
QNH
hPa
Press
MSL
hPa
Rain
since 9 am
mm
Dir
 
Spd
km/h
Gust
km/h
Spd
kts
Gust
kts
10/11:30pm 21.9 24.4 17.3 75 2.8 CALM 0 4 0 2 1012.3 1011.7 0.0
10/11:00pm 22.5 23.7 17.4 73 3.2 E 7 11 4 6 1012.6 1012.0 0.0
10/10:30pm 23.0 23.3 17.0 69 3.7 E 11 17 6 9 1012.9 1012.3 0.0
10/10:00pm 23.4 24.0 16.9 67 4.0 E 9 13 5 7 1012.8 1012.2 0.0
10/09:30pm 23.8 24.2 17.3 67 4.0 E 11 17 6 9 1012.8 1012.2 0.0
10/09:00pm 24.1 24.7 17.8 68 4.0 E 11 19 6 10 1012.7 1012.1 0.0
10/08:30pm 24.6 25.1 18.3 68 4.0 ENE 13 22 7 12 1012.4 1011.8 0.0
10/08:00pm 25.2 26.3 18.9 68 4.0 ENE 11 20 6 11 1012.2 1011.6 0.0
10/07:30pm 25.8 27.0 19.0 66 4.4 ENE 11 17 6 9 1011.5 1010.9 0.0
10/07:00pm 26.6 26.5 18.7 62 5.1 E 17 22 9 12 1011.0 1010.4 0.0
10/06:30pm 27.5 27.5 18.2 57 5.9 E 15 20 8 11 1010.5 1009.9 0.0
10/06:00pm 28.5 28.6 17.4 51 7.0 E 13 17 7 9 1010.1 1009.4 0.0
10/05:30pm 29.1 29.4 17.0 48 7.6 E 11 19 6 10 1009.8 1009.1 0.0
10/05:00pm 29.3 30.3 16.8 47 7.9 E 7 9 4 5 1009.5 1008.8 0.0
10/04:30pm 30.1 29.0 15.4 41 9.1 E 15 20 8 11 1009.4 1008.7 0.0
10/04:00pm 30.0 30.0 17.1 46 8.2 ESE 13 20 7 11 1009.3 1008.6 0.0
10/03:30pm 30.5 30.4 16.9 44 8.6 SSE 13 20 7 11 1009.5 1008.8 0.0
10/03:00pm 30.0 31.3 17.5 47 8.0 ENE 7 13 4 7 1009.8 1009.1 0.0
10/02:30pm 29.1 31.0 17.6 50 7.3 SSE 4 7 2 4 1010.2 1009.5 0.0
10/02:00pm 28.7 30.3 17.9 52 6.9 ESE 6 13 3 7 1010.6 1010.0 0.0
10/01:30pm 28.5 30.0 18.0 53 6.7 SE 7 13 4 7 1011.1 1010.5 0.0
10/01:00pm 28.3 27.9 17.2 51 7.0 ESE 15 26 8 14 1011.5 1010.9 0.0
10/12:30pm 27.6 27.0 17.5 54 6.4 SE 17 28 9 15 1011.9 1011.3 0.0
10/12:00pm 27.5 27.4 17.9 55 6.1 SE 15 24 8 13 1012.5 1011.9 0.0
10/11:30am 26.4 25.8 17.5 58 5.6 SE 17 24 9 13 1012.7 1012.1 0.0
10/11:00am 25.9 25.3 17.5 59 5.3 SE 17 24 9 13 1013.0 1012.4 0.0
10/10:30am 25.9 25.6 17.3 59 5.4 SSE 15 22 8 12 1013.3 1012.7 0.0
10/10:00am 25.6 25.6 17.3 60 5.2 SE 13 20 7 11 1013.4 1012.8 0.0
10/09:30am 25.9 26.2 17.8 61 5.1 E 13 19 7 10 1013.5 1012.9 0.0
10/09:00am 25.3 26.0 17.0 60 5.2 SSE 9 15 5 8 1013.6 1013.0 0.0
10/08:30am 24.7 25.5 17.2 63 4.7 SE 9 15 5 8 1013.7 1013.1 0.0
10/08:00am 23.6 24.0 16.4 64 4.4 SSE 9 15 5 8 1013.4 1012.8 0.0
10/07:30am 22.6 22.5 15.9 66 4.1 S 11 17 6 9 1013.5 1012.9 0.0
10/07:00am 21.6 22.2 15.7 69 3.5 S 7 13 4 7 1013.2 1012.6 0.0
10/06:30am 20.4 21.1 15.6 74 2.9 SSW 6 7 3 4 1013.0 1012.4 0.0
10/06:00am 20.3 21.0 15.5 74 2.9 S 6 9 3 5 1012.9 1012.3 0.0
10/05:30am 19.5 20.3 15.8 79 2.2 SW 6 7 3 4 1012.5 1011.9 0.0
10/05:00am 18.9 19.7 15.8 82 1.8 SW 6 7 3 4 1012.3 1011.7 0.0
10/04:30am 18.3 19.0 15.7 85 1.5 SW 6 6 3 3 1012.1 1011.5 0.0
10/04:00am 17.7 18.5 14.8 83 1.7 WSW 4 6 2 3 1012.0 1011.4 0.0
10/03:30am 18.8 19.9 15.7 82 1.8 SSW 4 4 2 2 1011.9 1011.3 0.0
10/03:00am 18.6 19.0 15.3 81 1.9 SW 7 9 4 5 1011.9 1011.3 0.0
10/02:30am 18.9 19.3 15.2 79 2.2 SW 7 11 4 6 1012.0 1011.4 0.0
10/02:00am 20.3 21.7 15.3 73 3.0 S 2 4 1 2 1012.2 1011.6 0.0
10/01:30am 21.0 22.1 15.5 71 3.3 SSE 4 6 2 3 1012.5 1011.9 0.0
10/01:00am 20.6 21.8 15.8 74 2.9 SSW 4 6 2 3 1012.9 1012.3 0.0
10/12:30am 20.5 22.2 15.3 72 3.1 CALM 0 0 0 0 1013.2 1012.6 0.0
10/12:00am 21.1 22.3 15.0 68 3.6 SSE 2 4 1 2 1013.4 1012.8 0.0
 
Date/Time
EST
Temp
°C
App
Temp
°C
Dew
Point
Rel
Hum
%
Delta-T
°C
Wind Press
QNH
hPa
Press
MSL
hPa
Rain
since 9 am
mm
Dir
 
Spd
km/h
Gust
km/h
Spd
kts
Gust
kts
09/11:30pm 21.9 22.9 15.3 66 3.9 SE 4 6 2 3 1013.9 1013.3 0.0
09/11:00pm 22.1 22.7 15.2 65 4.1 SE 6 7 3 4 1014.4 1013.7 0.0
09/10:30pm 22.4 23.1 15.5 65 4.1 ESE 6 9 3 5 1014.6 1013.9 0.0
09/10:00pm 22.8 22.9 15.6 64 4.3 E 9 13 5 7 1014.8 1014.1 0.0
09/09:30pm 23.4 23.6 15.7 62 4.7 E 9 15 5 8 1014.9 1014.2 0.0
09/09:00pm 23.9 23.8 15.9 61 4.9 E 11 17 6 9 1015.0 1014.3 0.0
09/08:30pm 24.6 22.8 16.1 59 5.2 E 20 33 11 18 1014.6 1013.9 0.0
09/08:00pm 25.2 22.7 16.1 57 5.6 E 24 41 13 22 1014.0 1013.4 0.0
09/07:30pm 25.4 23.8 16.0 56 5.8 E 19 28 10 15 1013.5 1012.9 0.0
09/07:00pm 26.2 24.9 15.9 53 6.3 E 17 24 9 13 1013.2 1012.6 0.0
09/06:30pm 27.0 26.0 15.7 50 6.9 E 15 24 8 13 1012.8 1012.2 0.0
09/06:00pm 27.8 25.7 15.1 46 7.8 E 20 28 11 15 1012.4 1011.8 0.0
09/05:30pm 28.4 26.4 15.0 44 8.2 ESE 19 28 10 15 1011.9 1011.3 0.0
09/05:00pm 29.3 28.8 15.8 44 8.4 E 13 19 7 10 1011.6 1011.0 0.0
09/04:30pm 29.0 27.7 15.9 45 8.1 E 17 22 9 12 1011.6 1011.0 0.0
09/04:00pm 29.8 28.0 16.9 45 8.1 E 22 32 12 17 1011.7 1011.1 0.0
09/03:30pm 30.7 29.8 15.9 40 9.2 E 15 26 8 14 1011.7 1011.1 0.0
09/03:00pm 29.5 27.7 16.0 44 8.4 ESE 20 32 11 17 1011.9 1011.3 0.0
09/02:30pm 29.6 27.5 16.1 44 8.4 ENE 22 30 12 16 1012.1 1011.5 0.0
09/02:00pm 30.0 28.3 17.1 46 8.2 E 22 32 12 17 1012.4 1011.8 0.0
09/01:30pm 29.8 28.5 17.3 47 7.9 ESE 20 32 11 17 1012.8 1012.2 0.0
09/01:00pm 29.2 29.6 16.4 46 8.0 SE 9 20 5 11 1013.2 1012.6 0.0
09/12:30pm 28.7 28.1 15.6 45 8.1 E 13 24 7 13 1013.5 1012.9 0.0
09/12:00pm 29.1 28.6 17.0 48 7.6 E 15 22 8 12 1013.8 1013.2 0.0
09/11:30am 28.9 28.2 17.4 49 7.3 ESE 17 28 9 15 1014.0 1013.4 0.0
09/11:00am 27.6 27.6 17.2 53 6.5 SE 13 22 7 12 1014.4 1013.7 0.0
09/10:30am 26.9 25.4 16.2 52 6.6 SE 19 26 10 14 1014.6 1013.9 0.0
09/10:00am 26.7 26.2 16.9 55 6.1 SE 15 22 8 12 1014.9 1014.2 0.0
09/09:30am 27.1 26.0 17.3 55 6.2 E 19 28 10 15 1015.1 1014.4 0.0
09/09:00am 26.4 24.7 17.2 57 5.8 E 22 32 12 17 1015.0 1014.3 0.0
09/08:30am 25.9 25.0 17.8 61 5.1 ESE 19 28 10 15 1015.0 1014.3 0.0
09/08:00am 24.5 23.5 16.7 61 4.8 ESE 17 26 9 14 1015.0 1014.3 0.0
09/07:30am 23.4 24.0 16.9 67 4.0 SE 9 13 5 7 1015.0 1014.3 0.0

Other Formats:

Comma delimited format used in spreadsheet applications
http://www.bom.gov.au/fwo/IDQ60801/IDQ60801.95543.axf

JavaScript Object Notation format (JSON) in row-major order
http://www.bom.gov.au/fwo/IDQ60801/IDQ60801.95543.json